sensor_id;sensor_type;location;lat;lon;timestamp;pressure;altitude;pressure_sealevel;temperature;humidity
18985;BME280;9626;52.552;13.436;2023-02-12T00:00:44;102744.91;;;6.01;100.00
18985;BME280;9626;52.552;13.436;2023-02-12T00:03:11;102742.16;;;5.98;100.00
18985;BME280;9626;52.552;13.436;2023-02-12T00:05:38;102750.97;;;5.99;100.00
18985;BME280;9626;52.552;13.436;2023-02-12T00:08:05;102761.41;;;5.97;100.00
18985;BME280;9626;52.552;13.436;2023-02-12T00:10:31;102765.88;;;6.00;100.00
18985;BME280;9626;52.552;13.436;2023-02-12T00:12:56;102764.16;;;6.00;100.00
18985;BME280;9626;52.552;13.436;2023-02-12T00:15:22;102763.31;;;6.01;100.00
18985;BME280;9626;52.552;13.436;2023-02-12T00:17:48;102775.50;;;5.99;100.00
18985;BME280;9626;52.552;13.436;2023-02-12T00:20:15;102774.63;;;5.99;100.00
18985;BME280;9626;52.552;13.436;2023-02-12T00:22:41;102777.31;;;6.00;100.00
18985;BME280;9626;52.552;13.436;2023-02-12T00:25:07;102782.56;;;6.00;100.00
18985;BME280;9626;52.552;13.436;2023-02-12T00:27:34;102773.72;;;5.98;100.00
18985;BME280;9626;52.552;13.436;2023-02-12T00:30:01;102773.59;;;5.95;100.00
18985;BME280;9626;52.552;13.436;2023-02-12T00:32:27;102781.44;;;5.93;100.00
18985;BME280;9626;52.552;13.436;2023-02-12T00:34:53;102782.31;;;5.94;100.00
18985;BME280;9626;52.552;13.436;2023-02-12T00:37:19;102778.03;;;5.96;100.00
18985;BME280;9626;52.552;13.436;2023-02-12T00:39:45;102788.63;;;5.98;100.00
18985;BME280;9626;52.552;13.436;2023-02-12T00:42:11;102778.16;;;5.99;100.00
18985;BME280;9626;52.552;13.436;2023-02-12T00:44:37;102778.97;;;5.98;100.00
18985;BME280;9626;52.552;13.436;2023-02-12T00:47:03;102776.22;;;5.95;100.00
18985;BME280;9626;52.552;13.436;2023-02-12T00:49:30;102779.72;;;5.96;100.00
18985;BME280;9626;52.552;13.436;2023-02-12T00:52:03;102785.91;;;5.96;100.00
18985;BME280;9626;52.552;13.436;2023-02-12T00:54:30;102787.69;;;5.97;100.00
18985;BME280;9626;52.552;13.436;2023-02-12T00:56:56;102803.56;;;5.99;100.00
18985;BME280;9626;52.552;13.436;2023-02-12T00:59:23;102793.91;;;5.99;100.00
18985;BME280;9626;52.552;13.436;2023-02-12T01:01:51;102794.63;;;5.95;100.00
18985;BME280;9626;52.552;13.436;2023-02-12T01:04:18;102791.78;;;5.89;100.00
18985;BME280;9626;52.552;13.436;2023-02-12T01:06:44;102792.75;;;5.91;100.00
18985;BME280;9626;52.552;13.436;2023-02-12T01:09:11;102798.84;;;5.90;100.00
18985;BME280;9626;52.552;13.436;2023-02-12T01:11:38;102802.44;;;5.92;100.00
18985;BME280;9626;52.552;13.436;2023-02-12T01:14:04;102797.91;;;5.88;100.00
18985;BME280;9626;52.552;13.436;2023-02-12T01:16:30;102797.00;;;5.87;100.00
18985;BME280;9626;52.552;13.436;2023-02-12T01:18:58;102804.00;;;5.87;100.00
18985;BME280;9626;52.552;13.436;2023-02-12T01:21:27;102803.13;;;5.86;100.00
18985;BME280;9626;52.552;13.436;2023-02-12T01:23:54;102808.38;;;5.86;100.00
18985;BME280;9626;52.552;13.436;2023-02-12T01:26:20;102813.56;;;5.85;100.00
18985;BME280;9626;52.552;13.436;2023-02-12T01:28:53;102818.81;;;5.85;100.00
18985;BME280;9626;52.552;13.436;2023-02-12T01:31:22;102815.34;;;5.86;100.00
18985;BME280;9626;52.552;13.436;2023-02-12T01:33:51;102821.41;;;5.83;100.00
18985;BME280;9626;52.552;13.436;2023-02-12T01:36:18;102825.78;;;5.83;100.00
18985;BME280;9626;52.552;13.436;2023-02-12T01:38:44;102821.34;;;5.82;100.00
18985;BME280;9626;52.552;13.436;2023-02-12T01:41:19;102825.69;;;5.80;100.00
18985;BME280;9626;52.552;13.436;2023-02-12T01:44:05;102829.19;;;5.80;100.00
18985;BME280;9626;52.552;13.436;2023-02-12T01:46:31;102829.25;;;5.82;100.00
18985;BME280;9626;52.552;13.436;2023-02-12T01:48:57;102829.97;;;5.78;100.00
18985;BME280;9626;52.552;13.436;2023-02-12T01:51:24;102835.25;;;5.78;100.00
18985;BME280;9626;52.552;13.436;2023-02-12T01:53:54;102837.81;;;5.76;100.00
18985;BME280;9626;52.552;13.436;2023-02-12T01:56:22;102840.50;;;5.78;100.00
18985;BME280;9626;52.552;13.436;2023-02-12T01:58:50;102834.41;;;5.79;100.00
18985;BME280;9626;52.552;13.436;2023-02-12T02:01:21;102840.50;;;5.78;100.00
18985;BME280;9626;52.552;13.436;2023-02-12T02:03:51;102835.13;;;5.74;100.00
18985;BME280;9626;52.552;13.436;2023-02-12T02:06:21;102841.31;;;5.76;100.00
18985;BME280;9626;52.552;13.436;2023-02-12T02:08:50;102840.41;;;5.74;100.00
18985;BME280;9626;52.552;13.436;2023-02-12T02:11:35;102844.81;;;5.75;100.00
18985;BME280;9626;52.552;13.436;2023-02-12T02:14:39;102846.59;;;5.76;100.00
18985;BME280;9626;52.552;13.436;2023-02-12T02:20:48;102850.19;;;5.79;100.00
18985;BME280;9626;52.552;13.436;2023-02-12T02:33:12;102843.13;;;5.78;100.00
18985;BME280;9626;52.552;13.436;2023-02-12T02:39:05;102838.88;;;5.81;100.00
18985;BME280;9626;52.552;13.436;2023-02-12T02:42:09;102847.59;;;5.80;100.00
18985;BME280;9626;52.552;13.436;2023-02-12T02:45:10;102841.47;;;5.80;100.00
18985;BME280;9626;52.552;13.436;2023-02-12T02:48:01;102841.47;;;5.80;100.00
18985;BME280;9626;52.552;13.436;2023-02-12T02:50:53;102852.84;;;5.80;100.00
18985;BME280;9626;52.552;13.436;2023-02-12T02:53:48;102850.28;;;5.82;100.00
18985;BME280;9626;52.552;13.436;2023-02-12T02:56:38;102849.44;;;5.83;100.00
18985;BME280;9626;52.552;13.436;2023-02-12T02:59:30;102853.88;;;5.84;100.00
18985;BME280;9626;52.552;13.436;2023-02-12T03:02:21;102855.63;;;5.85;100.00
18985;BME280;9626;52.552;13.436;2023-02-12T03:05:16;102862.69;;;5.86;100.00
18985;BME280;9626;52.552;13.436;2023-02-12T03:08:32;102868.84;;;5.86;100.00
18985;BME280;9626;52.552;13.436;2023-02-12T03:11:24;102871.41;;;5.85;100.00
18985;BME280;9626;52.552;13.436;2023-02-12T03:14:34;102869.75;;;5.87;100.00
18985;BME280;9626;52.552;13.436;2023-02-12T03:17:24;102875.69;;;5.81;100.00
18985;BME280;9626;52.552;13.436;2023-02-12T03:20:14;102882.75;;;5.82;100.00
18985;BME280;9626;52.552;13.436;2023-02-12T03:23:05;102888.00;;;5.82;100.00
18985;BME280;9626;52.552;13.436;2023-02-12T03:26:05;102887.19;;;5.85;100.00
18985;BME280;9626;52.552;13.436;2023-02-12T03:28:52;102888.06;;;5.84;100.00
18985;BME280;9626;52.552;13.436;2023-02-12T03:35:09;102888.97;;;5.86;100.00
18985;BME280;9626;52.552;13.436;2023-02-12T03:41:15;102889.81;;;5.85;100.00
18985;BME280;9626;52.552;13.436;2023-02-12T03:44:23;102894.25;;;5.86;100.00
18985;BME280;9626;52.552;13.436;2023-02-12T03:50:13;102894.97;;;5.82;100.00
18985;BME280;9626;52.552;13.436;2023-02-12T03:52:41;102888.78;;;5.80;100.00
18985;BME280;9626;52.552;13.436;2023-02-12T03:55:08;102894.91;;;5.80;100.00
18985;BME280;9626;52.552;13.436;2023-02-12T03:57:42;102898.22;;;5.74;100.00
18985;BME280;9626;52.552;13.436;2023-02-12T04:00:15;102902.66;;;5.75;100.00
18985;BME280;9626;52.552;13.436;2023-02-12T04:02:42;102902.72;;;5.77;100.00
18985;BME280;9626;52.552;13.436;2023-02-12T04:05:16;102908.03;;;5.79;100.00
18985;BME280;9626;52.552;13.436;2023-02-12T04:07:42;102910.75;;;5.82;100.00
18985;BME280;9626;52.552;13.436;2023-02-12T04:10:08;102909.03;;;5.82;100.00
18985;BME280;9626;52.552;13.436;2023-02-12T04:28:47;102911.53;;;5.79;100.00
18985;BME280;9626;52.552;13.436;2023-02-12T04:31:31;102921.00;;;5.74;100.00
18985;BME280;9626;52.552;13.436;2023-02-12T04:36:44;102921.78;;;5.71;100.00
18985;BME280;9626;52.552;13.436;2023-02-12T04:39:16;102919.22;;;5.73;100.00
18985;BME280;9626;52.552;13.436;2023-02-12T04:41:42;102927.88;;;5.70;100.00
18985;BME280;9626;52.552;13.436;2023-02-12T04:44:21;102926.28;;;5.74;100.00
18985;BME280;9626;52.552;13.436;2023-02-12T04:46:49;102915.75;;;5.74;100.00
18985;BME280;9626;52.552;13.436;2023-02-12T04:49:17;102921.00;;;5.74;100.00
18985;BME280;9626;52.552;13.436;2023-02-12T04:51:43;102914.84;;;5.73;100.00
18985;BME280;9626;52.552;13.436;2023-02-12T04:54:09;102908.69;;;5.73;100.00
18985;BME280;9626;52.552;13.436;2023-02-12T04:56:35;102918.31;;;5.72;100.00
18985;BME280;9626;52.552;13.436;2023-02-12T04:59:02;102918.31;;;5.72;100.00
18985;BME280;9626;52.552;13.436;2023-02-12T05:01:28;102925.34;;;5.73;100.00
18985;BME280;9626;52.552;13.436;2023-02-12T05:03:54;102921.91;;;5.74;100.00
18985;BME280;9626;52.552;13.436;2023-02-12T05:06:20;102927.25;;;5.78;100.00
18985;BME280;9626;52.552;13.436;2023-02-12T05:08:46;102925.53;;;5.78;100.00
18985;BME280;9626;52.552;13.436;2023-02-12T05:11:12;102921.22;;;5.80;100.00
18985;BME280;9626;52.552;13.436;2023-02-12T05:13:38;102923.91;;;5.82;100.00
18985;BME280;9626;52.552;13.436;2023-02-12T05:16:05;102921.22;;;5.80;100.00
18985;BME280;9626;52.552;13.436;2023-02-12T05:18:33;102927.34;;;5.81;100.00
18985;BME280;9626;52.552;13.436;2023-02-12T05:21:01;102928.28;;;5.81;100.00
18985;BME280;9626;52.552;13.436;2023-02-12T05:23:29;102934.41;;;5.82;100.00
18985;BME280;9626;52.552;13.436;2023-02-12T05:26:01;102929.16;;;5.82;100.00
18985;BME280;9626;52.552;13.436;2023-02-12T05:28:28;102924.72;;;5.81;100.00
18985;BME280;9626;52.552;13.436;2023-02-12T05:30:59;102927.25;;;5.78;100.00
18985;BME280;9626;52.552;13.436;2023-02-12T05:33:26;102935.19;;;5.79;100.00
18985;BME280;9626;52.552;13.436;2023-02-12T05:35:52;102934.31;;;5.79;100.00
18985;BME280;9626;52.552;13.436;2023-02-12T05:38:18;102939.56;;;5.79;100.00
18985;BME280;9626;52.552;13.436;2023-02-12T05:40:43;102941.22;;;5.76;100.00
18985;BME280;9626;52.552;13.436;2023-02-12T05:43:09;102941.97;;;5.72;100.00
18985;BME280;9626;52.552;13.436;2023-02-12T05:45:36;102941.03;;;5.70;100.00
18985;BME280;9626;52.552;13.436;2023-02-12T05:48:03;102943.66;;;5.70;100.00
18985;BME280;9626;52.552;13.436;2023-02-12T05:50:29;102946.28;;;5.70;100.00
18985;BME280;9626;52.552;13.436;2023-02-12T05:52:55;102948.69;;;5.64;100.00
18985;BME280;9626;52.552;13.436;2023-02-12T05:55:21;102942.59;;;5.65;100.00
18985;BME280;9626;52.552;13.436;2023-02-12T05:57:47;102953.09;;;5.65;100.00
18985;BME280;9626;52.552;13.436;2023-02-12T06:00:13;102945.13;;;5.62;100.00
18985;BME280;9626;52.552;13.436;2023-02-12T06:02:39;102948.69;;;5.64;100.00
18985;BME280;9626;52.552;13.436;2023-02-12T06:05:05;102952.22;;;5.65;100.00
18985;BME280;9626;52.552;13.436;2023-02-12T06:07:31;102949.53;;;5.63;100.00
18985;BME280;9626;52.552;13.436;2023-02-12T06:09:57;102950.38;;;5.62;100.00
18985;BME280;9626;52.552;13.436;2023-02-12T06:12:24;102956.47;;;5.61;100.00
18985;BME280;9626;52.552;13.436;2023-02-12T06:14:50;102953.78;;;5.59;100.00
18985;BME280;9626;52.552;13.436;2023-02-12T06:17:16;102962.69;;;5.63;100.00
18985;BME280;9626;52.552;13.436;2023-02-12T06:19:42;102968.88;;;5.65;100.00
18985;BME280;9626;52.552;13.436;2023-02-12T06:22:08;102971.44;;;5.64;100.00
18985;BME280;9626;52.552;13.436;2023-02-12T06:24:34;102969.66;;;5.63;100.00
18985;BME280;9626;52.552;13.436;2023-02-12T06:27:00;102980.13;;;5.61;100.00
18985;BME280;9626;52.552;13.436;2023-02-12T06:29:26;102985.31;;;5.59;100.00
18985;BME280;9626;52.552;13.436;2023-02-12T06:31:52;102993.97;;;5.57;100.00
18985;BME280;9626;52.552;13.436;2023-02-12T06:34:18;102996.56;;;5.55;100.00
18985;BME280;9626;52.552;13.436;2023-02-12T06:36:45;102990.47;;;5.56;100.00
18985;BME280;9626;52.552;13.436;2023-02-12T06:39:13;103002.69;;;5.56;100.00
18985;BME280;9626;52.552;13.436;2023-02-12T06:41:39;103002.84;;;5.59;100.00
18985;BME280;9626;52.552;13.436;2023-02-12T06:44:06;103006.41;;;5.61;100.00
18985;BME280;9626;52.552;13.436;2023-02-12T06:46:32;103010.72;;;5.59;100.00
18985;BME280;9626;52.552;13.436;2023-02-12T06:48:59;103011.50;;;5.56;100.00
18985;BME280;9626;52.552;13.436;2023-02-12T06:51:27;103014.06;;;5.55;100.00
18985;BME280;9626;52.552;13.436;2023-02-12T06:53:54;103022.88;;;5.57;100.00
18985;BME280;9626;52.552;13.436;2023-02-12T06:56:22;103019.44;;;5.58;100.00
18985;BME280;9626;52.552;13.436;2023-02-12T06:58:54;103021.28;;;5.61;100.00
18985;BME280;9626;52.552;13.436;2023-02-12T07:01:23;103026.69;;;5.65;100.00
18985;BME280;9626;52.552;13.436;2023-02-12T07:03:54;103031.13;;;5.66;100.00
18985;BME280;9626;52.552;13.436;2023-02-12T07:06:21;103023.13;;;5.63;100.00
18985;BME280;9626;52.552;13.436;2023-02-12T07:08:47;103038.19;;;5.67;100.00
18985;BME280;9626;52.552;13.436;2023-02-12T07:11:14;103028.59;;;5.69;100.00
18985;BME280;9626;52.552;13.436;2023-02-12T07:13:41;103039.13;;;5.69;100.00
18985;BME280;9626;52.552;13.436;2023-02-12T07:16:10;103040.09;;;5.71;100.00
18985;BME280;9626;52.552;13.436;2023-02-12T07:18:37;103037.94;;;5.84;100.00
18985;BME280;9626;52.552;13.436;2023-02-12T07:21:05;103037.97;;;5.85;100.00
18985;BME280;9626;52.552;13.436;2023-02-12T07:23:32;103045.44;;;5.97;100.00
18985;BME280;9626;52.552;13.436;2023-02-12T07:26:00;103037.41;;;5.94;100.00
18985;BME280;9626;52.552;13.436;2023-02-12T07:28:26;103033.94;;;5.95;100.00
18985;BME280;9626;52.552;13.436;2023-02-12T07:30:53;103039.25;;;5.97;100.00
18985;BME280;9626;52.552;13.436;2023-02-12T07:33:19;103045.44;;;5.97;100.00
18985;BME280;9626;52.552;13.436;2023-02-12T07:35:45;103041.84;;;5.95;100.00
18985;BME280;9626;52.552;13.436;2023-02-12T07:38:11;103044.47;;;5.95;100.00
18985;BME280;9626;52.552;13.436;2023-02-12T07:40:37;103043.63;;;5.96;100.00
18985;BME280;9626;52.552;13.436;2023-02-12T07:43:03;103040.03;;;5.94;100.00
18985;BME280;9626;52.552;13.436;2023-02-12T07:45:29;103047.16;;;5.97;100.00
18985;BME280;9626;52.552;13.436;2023-02-12T07:47:55;103056.09;;;6.00;100.00
18985;BME280;9626;52.552;13.436;2023-02-12T07:50:21;103045.56;;;6.00;100.00
18985;BME280;9626;52.552;13.436;2023-02-12T07:52:48;103049.91;;;6.00;100.00
18985;BME280;9626;52.552;13.436;2023-02-12T07:55:15;103051.00;;;6.05;100.00
18985;BME280;9626;52.552;13.436;2023-02-12T07:57:41;103054.63;;;6.08;100.00
18985;BME280;9626;52.552;13.436;2023-02-12T08:00:08;103063.47;;;6.11;100.00
18985;BME280;9626;52.552;13.436;2023-02-12T08:02:34;103059.22;;;6.14;100.00
18985;BME280;9626;52.552;13.436;2023-02-12T08:05:00;103055.75;;;6.15;100.00
18985;BME280;9626;52.552;13.436;2023-02-12T08:07:26;103054.13;;;6.19;100.00
18985;BME280;9626;52.552;13.436;2023-02-12T08:09:52;103057.63;;;6.18;100.00
18985;BME280;9626;52.552;13.436;2023-02-12T08:12:18;103054.97;;;6.18;100.00
18985;BME280;9626;52.552;13.436;2023-02-12T08:14:44;103072.66;;;6.22;100.00
18985;BME280;9626;52.552;13.436;2023-02-12T08:17:10;103067.28;;;6.19;100.00
18985;BME280;9626;52.552;13.436;2023-02-12T08:19:36;103068.97;;;6.17;100.00
18985;BME280;9626;52.552;13.436;2023-02-12T08:22:02;103076.03;;;6.18;100.00
18985;BME280;9626;52.552;13.436;2023-02-12T08:24:29;103074.34;;;6.20;100.00
18985;BME280;9626;52.552;13.436;2023-02-12T08:26:55;103070.16;;;6.25;100.00
18985;BME280;9626;52.552;13.436;2023-02-12T08:29:24;103080.78;;;6.28;100.00
18985;BME280;9626;52.552;13.436;2023-02-12T08:31:57;103074.69;;;6.29;100.00
18985;BME280;9626;52.552;13.436;2023-02-12T08:34:29;103077.34;;;6.31;100.00
18985;BME280;9626;52.552;13.436;2023-02-12T08:36:56;103082.63;;;6.31;100.00
18985;BME280;9626;52.552;13.436;2023-02-12T08:39:25;103087.09;;;6.33;100.00
18985;BME280;9626;52.552;13.436;2023-02-12T08:41:55;103087.97;;;6.34;100.00
18985;BME280;9626;52.552;13.436;2023-02-12T08:44:21;103093.38;;;6.37;100.00
18985;BME280;9626;52.552;13.436;2023-02-12T08:46:50;103095.22;;;6.39;100.00
18985;BME280;9626;52.552;13.436;2023-02-12T08:49:21;103104.91;;;6.40;100.00
18985;BME280;9626;52.552;13.436;2023-02-12T08:51:50;103102.44;;;6.45;100.00
18985;BME280;9626;52.552;13.436;2023-02-12T08:54:20;103100.84;;;6.50;100.00
18985;BME280;9626;52.552;13.436;2023-02-12T08:56:46;103107.97;;;6.53;100.00
18985;BME280;9626;52.552;13.436;2023-02-12T08:59:14;103112.44;;;6.55;100.00
18985;BME280;9626;52.552;13.436;2023-02-12T09:01:40;103108.94;;;6.55;100.00
18985;BME280;9626;52.552;13.436;2023-02-12T09:04:14;103113.28;;;6.54;100.00
18985;BME280;9626;52.552;13.436;2023-02-12T09:06:42;103114.31;;;6.58;100.00
18985;BME280;9626;52.552;13.436;2023-02-12T09:09:08;103117.03;;;6.61;100.00
18985;BME280;9626;52.552;13.436;2023-02-12T09:11:35;103124.94;;;6.61;100.00
18985;BME280;9626;52.552;13.436;2023-02-12T09:14:07;103119.66;;;6.61;100.00
18985;BME280;9626;52.552;13.436;2023-02-12T09:16:36;103127.66;;;6.63;100.00
18985;BME280;9626;52.552;13.436;2023-02-12T09:19:03;103124.19;;;6.65;100.00
18985;BME280;9626;52.552;13.436;2023-02-12T09:21:29;103120.91;;;6.71;100.00
18985;BME280;9626;52.552;13.436;2023-02-12T09:23:55;103127.25;;;6.77;100.00
18985;BME280;9626;52.552;13.436;2023-02-12T09:26:23;103136.03;;;6.76;100.00
18985;BME280;9626;52.552;13.436;2023-02-12T09:28:51;103134.31;;;6.79;100.00
18985;BME280;9626;52.552;13.436;2023-02-12T09:31:22;103132.84;;;6.87;100.00
18985;BME280;9626;52.552;13.436;2023-02-12T09:33:52;103143.38;;;6.87;100.00
18985;BME280;9626;52.552;13.436;2023-02-12T09:36:19;103152.25;;;6.89;100.00
18985;BME280;9626;52.552;13.436;2023-02-12T09:38:46;103149.66;;;6.90;100.00
18985;BME280;9626;52.552;13.436;2023-02-12T09:49:21;103150.56;;;6.91;100.00
18985;BME280;9626;52.552;13.436;2023-02-12T09:51:50;103148.66;;;6.87;100.00
18985;BME280;9626;52.552;13.436;2023-02-12T09:54:24;103150.69;;;6.94;100.00
18985;BME280;9626;52.552;13.436;2023-02-12T09:56:55;103154.16;;;6.93;100.00
18985;BME280;9626;52.552;13.436;2023-02-12T09:59:44;103156.69;;;6.90;100.00
18985;BME280;9626;52.552;13.436;2023-02-12T10:02:14;103146.75;;;6.83;100.00
18985;BME280;9626;52.552;13.436;2023-02-12T10:04:42;103148.47;;;6.81;100.00
18985;BME280;9626;52.552;13.436;2023-02-12T10:12:56;103162.78;;;6.89;100.00
18985;BME280;9626;52.552;13.436;2023-02-12T10:15:55;103149.44;;;6.84;100.00
18985;BME280;9626;52.552;13.436;2023-02-12T10:18:46;103150.34;;;6.85;100.00
18985;BME280;9626;52.552;13.436;2023-02-12T10:24:43;103154.72;;;7.10;100.00
18985;BME280;9626;52.552;13.436;2023-02-12T10:27:20;103154.97;;;7.18;100.00
18985;BME280;9626;52.552;13.436;2023-02-12T10:29:48;103148.94;;;7.20;100.00
18985;BME280;9626;52.552;13.436;2023-02-12T10:32:18;103148.41;;;7.05;100.00
18985;BME280;9626;52.552;13.436;2023-02-12T10:34:49;103144.97;;;7.07;100.00
18985;BME280;9626;52.552;13.436;2023-02-12T10:40:26;103152.44;;;6.95;100.00
18985;BME280;9626;52.552;13.436;2023-02-12T10:42:55;103161.47;;;7.02;100.00
18985;BME280;9626;52.552;13.436;2023-02-12T10:48:19;103154.75;;;7.11;100.00
18985;BME280;9626;52.552;13.436;2023-02-12T10:53:17;103156.38;;;7.06;100.00
18985;BME280;9626;52.552;13.436;2023-02-12T10:55:45;103151.75;;;7.01;100.00
18985;BME280;9626;52.552;13.436;2023-02-12T10:58:19;103156.56;;;6.87;100.00
18985;BME280;9626;52.552;13.436;2023-02-12T11:00:45;103160.66;;;6.79;100.00
18985;BME280;9626;52.552;13.436;2023-02-12T11:05:42;103159.69;;;6.51;100.00
18985;BME280;9626;52.552;13.436;2023-02-12T11:08:29;103166.00;;;6.56;100.00
18985;BME280;9626;52.552;13.436;2023-02-12T11:11:03;103166.31;;;6.65;100.00
18985;BME280;9626;52.552;13.436;2023-02-12T11:13:30;103162.06;;;6.69;100.00
18985;BME280;9626;52.552;13.436;2023-02-12T11:15:56;103161.34;;;6.73;100.00
18985;BME280;9626;52.552;13.436;2023-02-12T11:18:25;103163.13;;;6.74;100.00
18985;BME280;9626;52.552;13.436;2023-02-12T11:20:57;103155.19;;;6.72;100.00
18985;BME280;9626;52.552;13.436;2023-02-12T11:23:30;103158.81;;;6.76;100.00
18985;BME280;9626;52.552;13.436;2023-02-12T11:28:59;103158.66;;;6.71;100.00
18985;BME280;9626;52.552;13.436;2023-02-12T11:31:33;103155.94;;;6.68;100.00
18985;BME280;9626;52.552;13.436;2023-02-12T11:34:16;103160.31;;;6.69;100.00
18985;BME280;9626;52.552;13.436;2023-02-12T11:36:46;103157.78;;;6.71;100.00
18985;BME280;9626;52.552;13.436;2023-02-12T11:39:31;103155.28;;;6.75;100.00
18985;BME280;9626;52.552;13.436;2023-02-12T11:42:07;103149.81;;;6.95;100.00
18985;BME280;9626;52.552;13.436;2023-02-12T11:44:42;103142.84;;;7.77;100.00
18985;BME280;9626;52.552;13.436;2023-02-12T11:47:17;103132.38;;;7.81;100.00
18985;BME280;9626;52.552;13.436;2023-02-12T11:49:54;103133.69;;;7.66;100.00
18985;BME280;9626;52.552;13.436;2023-02-12T11:52:27;103135.81;;;7.49;100.00
18985;BME280;9626;52.552;13.436;2023-02-12T11:55:03;103131.03;;;7.37;100.00
18985;BME280;9626;52.552;13.436;2023-02-12T11:57:44;103136.09;;;7.31;100.00
18985;BME280;9626;52.552;13.436;2023-02-12T12:02:49;103132.47;;;7.27;100.00
18985;BME280;9626;52.552;13.436;2023-02-12T12:05:20;103129.81;;;7.27;100.00
18985;BME280;9626;52.552;13.436;2023-02-12T12:07:52;103140.22;;;7.23;100.00
18985;BME280;9626;52.552;13.436;2023-02-12T12:10:37;103141.16;;;7.25;100.00
18985;BME280;9626;52.552;13.436;2023-02-12T12:13:12;103132.00;;;7.14;100.00
18985;BME280;9626;52.552;13.436;2023-02-12T12:15:43;103129.44;;;7.15;100.00
18985;BME280;9626;52.552;13.436;2023-02-12T12:21:40;103119.53;;;7.08;100.00
18985;BME280;9626;52.552;13.436;2023-02-12T12:24:14;103126.25;;;7.25;100.00
18985;BME280;9626;52.552;13.436;2023-02-12T12:26:47;103115.00;;;7.58;100.00
18985;BME280;9626;52.552;13.436;2023-02-12T12:29:33;103110.44;;;8.12;100.00
18985;BME280;9626;52.552;13.436;2023-02-12T12:32:09;103104.91;;;8.65;100.00
18985;BME280;9626;52.552;13.436;2023-02-12T12:34:36;103093.19;;;8.89;100.00
18985;BME280;9626;52.552;13.436;2023-02-12T12:50:55;103085.13;;;9.18;100.00
18985;BME280;9626;52.552;13.436;2023-02-12T13:12:32;103095.44;;;8.41;100.00
18985;BME280;9626;52.552;13.436;2023-02-12T13:26:49;103083.72;;;8.32;100.00
18985;BME280;9626;52.552;13.436;2023-02-12T13:32:06;103078.69;;;8.71;100.00
18985;BME280;9626;52.552;13.436;2023-02-12T13:34:38;103074.94;;;8.63;100.00
18985;BME280;9626;52.552;13.436;2023-02-12T13:37:13;103073.97;;;8.59;100.00
18985;BME280;9626;52.552;13.436;2023-02-12T13:39:44;103066.84;;;8.57;100.00
18985;BME280;9626;52.552;13.436;2023-02-12T13:42:26;103072.91;;;8.53;100.00
18985;BME280;9626;52.552;13.436;2023-02-12T13:45:03;103061.59;;;8.58;100.00
18985;BME280;9626;52.552;13.436;2023-02-12T13:50:58;103054.19;;;8.78;100.00
18985;BME280;9626;52.552;13.436;2023-02-12T14:02:01;103058.81;;;8.87;100.00
18985;BME280;9626;52.552;13.436;2023-02-12T14:04:33;103060.47;;;8.82;100.00
18985;BME280;9626;52.552;13.436;2023-02-12T14:07:04;103064.81;;;8.80;100.00
18985;BME280;9626;52.552;13.436;2023-02-12T14:09:38;103056.78;;;8.75;100.00
18985;BME280;9626;52.552;13.436;2023-02-12T14:12:12;103059.13;;;8.65;100.00
18985;BME280;9626;52.552;13.436;2023-02-12T14:14:49;103061.50;;;8.54;100.00
18985;BME280;9626;52.552;13.436;2023-02-12T14:24:56;103071.59;;;8.38;100.00
18985;BME280;9626;52.552;13.436;2023-02-12T14:27:36;103064.28;;;8.28;100.00
18985;BME280;9626;52.552;13.436;2023-02-12T14:35:38;103060.91;;;8.34;100.00
18985;BME280;9626;52.552;13.436;2023-02-12T14:40:41;103058.16;;;8.29;100.00
18985;BME280;9626;52.552;13.436;2023-02-12T14:43:34;103064.09;;;8.22;100.00
18985;BME280;9626;52.552;13.436;2023-02-12T14:48:53;103067.38;;;8.13;100.00
18985;BME280;9626;52.552;13.436;2023-02-12T14:51:41;103070.91;;;8.13;100.00
18985;BME280;9626;52.552;13.436;2023-02-12T14:56:59;103058.44;;;8.08;100.00
18985;BME280;9626;52.552;13.436;2023-02-12T14:59:29;103061.13;;;8.09;100.00
18985;BME280;9626;52.552;13.436;2023-02-12T15:01:59;103052.34;;;8.10;100.00
18985;BME280;9626;52.552;13.436;2023-02-12T15:04:29;103060.97;;;8.03;100.00
18985;BME280;9626;52.552;13.436;2023-02-12T15:07:07;103060.84;;;8.00;100.00
18985;BME280;9626;52.552;13.436;2023-02-12T15:09:39;103060.91;;;8.02;100.00
18985;BME280;9626;52.552;13.436;2023-02-12T15:12:14;103054.75;;;8.03;100.00
18985;BME280;9626;52.552;13.436;2023-02-12T15:14:46;103056.59;;;8.05;100.00
18985;BME280;9626;52.552;13.436;2023-02-12T15:17:24;103063.47;;;8.00;100.00
18985;BME280;9626;52.552;13.436;2023-02-12T15:20:05;103064.59;;;8.08;100.00
18985;BME280;9626;52.552;13.436;2023-02-12T15:22:34;103063.66;;;8.06;100.00
18985;BME280;9626;52.552;13.436;2023-02-12T15:25:26;103063.59;;;8.03;100.00
18985;BME280;9626;52.552;13.436;2023-02-12T15:28:20;103059.16;;;8.02;100.00
18985;BME280;9626;52.552;13.436;2023-02-12T15:30:49;103063.81;;;8.12;100.00
18985;BME280;9626;52.552;13.436;2023-02-12T15:33:25;103073.38;;;8.07;100.00
18985;BME280;9626;52.552;13.436;2023-02-12T15:35:52;103076.78;;;8.03;100.00
18985;BME280;9626;52.552;13.436;2023-02-12T15:38:39;103074.09;;;8.02;100.00
18985;BME280;9626;52.552;13.436;2023-02-12T15:44:16;103067.16;;;8.05;100.00
18985;BME280;9626;52.552;13.436;2023-02-12T15:46:59;103070.72;;;8.06;100.00
18985;BME280;9626;52.552;13.436;2023-02-12T15:49:34;103074.22;;;8.06;100.00
18985;BME280;9626;52.552;13.436;2023-02-12T15:52:04;103074.00;;;7.99;100.00
18985;BME280;9626;52.552;13.436;2023-02-12T15:54:32;103072.88;;;7.90;100.00
18985;BME280;9626;52.552;13.436;2023-02-12T15:57:00;103083.38;;;7.89;100.00
18985;BME280;9626;52.552;13.436;2023-02-12T15:59:27;103086.00;;;7.87;100.00